createdAt,value
2023-06-07T00:01:14.554Z,48.14
2023-06-07T00:06:17.780Z,48.03
2023-06-07T00:11:22.958Z,47.87
2023-06-07T00:16:25.834Z,48.17
2023-06-07T00:21:29.356Z,49.13
2023-06-07T00:26:32.432Z,48.57
2023-06-07T00:31:35.304Z,49.40
2023-06-07T00:36:38.220Z,49.66
2023-06-07T00:41:41.115Z,49.90
2023-06-07T00:46:44.775Z,49.66
2023-06-07T00:51:47.839Z,49.99
2023-06-07T00:56:51.640Z,50.64
2023-06-07T01:01:56.944Z,49.88
2023-06-07T01:07:02.890Z,50.36
2023-06-07T01:12:07.236Z,51.87
2023-06-07T01:17:10.244Z,52.19
2023-06-07T01:22:15.311Z,51.73
2023-06-07T01:27:18.476Z,51.86
2023-06-07T01:32:22.815Z,52.94
2023-06-07T01:37:26.481Z,52.91
2023-06-07T01:42:29.946Z,53.62
2023-06-07T01:47:33.628Z,53.36
2023-06-07T01:52:36.652Z,52.68
2023-06-07T01:57:51.612Z,52.44
2023-06-07T02:03:07.414Z,52.05
2023-06-07T02:08:20.575Z,52.75
2023-06-07T02:13:26.592Z,53.37
2023-06-07T02:18:29.371Z,52.88
2023-06-07T02:23:32.225Z,53.05
2023-06-07T02:28:35.067Z,54.29
2023-06-07T02:33:37.848Z,53.58
2023-06-07T02:38:40.778Z,54.12
2023-06-07T02:43:45.145Z,55.27
2023-06-07T02:48:47.994Z,55.46
2023-06-07T02:53:50.980Z,55.93
2023-06-07T02:58:53.756Z,56.90
2023-06-07T03:03:58.162Z,57.20
2023-06-07T03:09:00.987Z,56.63
2023-06-07T03:14:03.828Z,55.80
2023-06-07T03:19:07.161Z,57.22
2023-06-07T03:24:10.194Z,55.92
2023-06-07T03:29:13.129Z,56.67
2023-06-07T03:34:16.204Z,55.82
2023-06-07T03:39:19.063Z,56.71
2023-06-07T03:44:21.915Z,56.07
2023-06-07T03:49:24.689Z,56.75
2023-06-07T03:54:27.559Z,56.85
2023-06-07T03:59:33.299Z,58.47
2023-06-07T04:04:36.433Z,57.58
2023-06-07T04:09:41.113Z,50.81
2023-06-07T04:14:43.916Z,42.22
2023-06-07T04:19:51.378Z,36.57
2023-06-07T04:24:54.814Z,32.28
2023-06-07T04:29:59.061Z,29.10
2023-06-07T04:35:01.893Z,26.78
2023-06-07T04:40:05.424Z,25.15
2023-06-07T04:45:11.151Z,23.72
2023-06-07T04:50:14.906Z,22.71
2023-06-07T04:55:18.956Z,21.75
2023-06-07T05:00:22.930Z,21.18
2023-06-07T05:05:26.133Z,20.42
2023-06-07T05:10:29.049Z,20.06
2023-06-07T05:15:32.456Z,19.22
2023-06-07T05:20:35.345Z,19.43
2023-06-07T05:25:40.096Z,22.48
2023-06-07T05:30:42.900Z,25.10
2023-06-07T05:35:47.361Z,26.88
2023-06-07T05:40:50.860Z,28.92
2023-06-07T05:45:53.817Z,30.02
2023-06-07T05:50:58.279Z,31.59
2023-06-07T05:56:01.197Z,32.23
2023-06-07T06:01:06.755Z,33.22
2023-06-07T06:06:17.475Z,33.48
2023-06-07T06:11:21.092Z,34.83
2023-06-07T06:16:24.123Z,35.11
2023-06-07T06:21:27.601Z,35.56
2023-06-07T06:26:34.189Z,35.56
2023-06-07T06:31:37.196Z,36.09
2023-06-07T06:36:59.795Z,36.25
2023-06-07T06:42:12.643Z,35.33
2023-06-07T06:47:16.200Z,34.16
2023-06-07T06:52:19.026Z,29.50
2023-06-07T06:57:26.256Z,25.65
2023-06-07T07:02:32.497Z,23.10
2023-06-07T07:07:41.956Z,21.16
2023-06-07T07:12:44.854Z,19.97
2023-06-07T07:17:49.547Z,18.64
2023-06-07T07:22:53.071Z,17.79
2023-06-07T07:28:04.103Z,17.99
2023-06-07T07:33:07.533Z,17.45
2023-06-07T07:38:10.588Z,16.99
2023-06-07T07:43:16.951Z,16.51
2023-06-07T07:48:19.844Z,15.95
2023-06-07T07:53:22.882Z,15.03
2023-06-07T07:58:34.077Z,15.13
2023-06-07T08:03:37.193Z,14.64
2023-06-07T08:08:41.292Z,14.21
2023-06-07T08:13:45.523Z,13.57
2023-06-07T08:18:56.691Z,13.39
2023-06-07T08:24:00.593Z,13.03
2023-06-07T08:29:05.162Z,13.05
2023-06-07T08:34:10.158Z,13.38
2023-06-07T08:39:13.845Z,13.60
2023-06-07T08:44:16.947Z,14.00
2023-06-07T08:49:23.873Z,14.08
2023-06-07T08:54:29.037Z,14.99
2023-06-07T08:59:32.666Z,16.19
2023-06-07T09:04:36.131Z,17.52
2023-06-07T09:09:45.254Z,17.73
2023-06-07T09:14:48.256Z,17.45
2023-06-07T09:19:53.762Z,17.15
2023-06-07T09:24:56.808Z,17.00
2023-06-07T09:30:07.039Z,17.29
2023-06-07T09:35:15.066Z,18.95
2023-06-07T09:40:19.815Z,20.68
2023-06-07T09:45:26.949Z,20.87
2023-06-07T09:50:31.195Z,21.21
2023-06-07T09:55:35.985Z,21.71
2023-06-07T10:00:43.542Z,21.61
2023-06-07T10:05:47.224Z,21.78
2023-06-07T10:10:53.831Z,22.47
2023-06-07T10:16:00.043Z,22.85
2023-06-07T10:21:27.461Z,22.80
2023-06-07T10:26:36.527Z,22.65
2023-06-07T10:31:53.072Z,22.23
2023-06-07T10:36:59.628Z,22.05
2023-06-07T10:42:02.679Z,21.79
2023-06-07T10:47:23.770Z,21.63
2023-06-07T10:52:28.001Z,21.80
2023-06-07T10:57:39.687Z,21.66
2023-06-07T11:02:45.500Z,21.84
2023-06-07T11:07:52.149Z,22.31
2023-06-07T11:12:56.320Z,22.66
2023-06-07T11:18:05.126Z,23.04
2023-06-07T11:23:30.676Z,23.32
2023-06-07T11:28:40.342Z,23.27
2023-06-07T11:33:45.990Z,22.64
2023-06-07T11:38:53.229Z,22.56
2023-06-07T11:43:57.935Z,22.68
2023-06-07T11:49:13.511Z,22.38
2023-06-07T11:54:16.742Z,22.50
2023-06-07T11:59:22.699Z,22.63
2023-06-07T12:04:26.521Z,22.85
2023-06-07T12:09:30.147Z,23.32
2023-06-07T12:14:35.319Z,23.16
2023-06-07T12:19:38.935Z,23.34
2023-06-07T12:24:42.551Z,24.03
2023-06-07T12:29:45.972Z,24.15
2023-06-07T12:34:50.297Z,24.69
2023-06-07T12:39:53.579Z,24.55
2023-06-07T12:44:56.845Z,24.51
2023-06-07T12:49:59.902Z,24.52
2023-06-07T12:55:03.061Z,23.94
2023-06-07T13:00:07.203Z,23.76
2023-06-07T13:05:14.186Z,23.50
2023-06-07T13:10:17.382Z,23.59
2023-06-07T13:15:20.272Z,23.63
2023-06-07T13:20:25.427Z,23.42
2023-06-07T13:25:28.450Z,23.70
2023-06-07T13:30:32.791Z,23.86
2023-06-07T13:35:37.955Z,23.84
2023-06-07T13:40:43.932Z,24.20
2023-06-07T13:45:46.958Z,24.02
2023-06-07T13:50:52.997Z,23.74
2023-06-07T13:55:56.151Z,23.28
2023-06-07T14:01:03.999Z,23.45
2023-06-07T14:06:07.454Z,23.50
2023-06-07T14:11:10.511Z,22.97
2023-06-07T14:16:13.835Z,22.79
2023-06-07T14:21:16.954Z,23.20
2023-06-07T14:26:20.970Z,23.57
2023-06-07T14:31:24.070Z,23.62
2023-06-07T14:36:26.940Z,23.53
2023-06-07T14:41:29.773Z,23.94
2023-06-07T14:46:32.747Z,23.91
2023-06-07T14:51:36.299Z,23.79
2023-06-07T14:56:39.260Z,23.68
2023-06-07T15:01:42.620Z,23.85
2023-06-07T15:06:46.508Z,24.01
2023-06-07T15:11:50.092Z,23.84
2023-06-07T15:16:54.929Z,24.06
2023-06-07T15:21:59.805Z,24.30
2023-06-07T15:27:02.838Z,24.55
2023-06-07T15:32:06.437Z,24.83
2023-06-07T15:37:10.708Z,25.08
2023-06-07T15:42:15.070Z,25.13
2023-06-07T15:47:18.412Z,25.16
2023-06-07T15:52:21.394Z,25.16
2023-06-07T15:57:24.521Z,25.36
2023-06-07T16:02:27.483Z,25.24
2023-06-07T16:07:30.426Z,25.22
2023-06-07T16:12:33.674Z,25.02
2023-06-07T16:17:39.362Z,25.43
2023-06-07T16:22:44.822Z,25.66
2023-06-07T16:27:47.945Z,25.74
2023-06-07T16:32:50.878Z,26.05
2023-06-07T16:37:54.003Z,26.21
2023-06-07T16:42:56.845Z,26.37
2023-06-07T16:47:59.738Z,26.53
2023-06-07T16:53:03.194Z,26.68
2023-06-07T16:58:07.637Z,27.08
2023-06-07T17:03:10.952Z,27.54
2023-06-07T17:08:14.580Z,27.93
2023-06-07T17:13:17.472Z,28.19
2023-06-07T17:18:22.116Z,28.25
2023-06-07T17:23:25.242Z,28.16
2023-06-07T17:28:30.579Z,28.15
2023-06-07T17:33:33.448Z,28.34
2023-06-07T17:38:36.505Z,28.59
2023-06-07T17:43:39.512Z,28.92
2023-06-07T17:48:42.469Z,29.12
2023-06-07T17:53:45.925Z,29.50
2023-06-07T17:58:48.880Z,30.16
2023-06-07T18:03:57.875Z,31.06
2023-06-07T18:09:01.184Z,31.85
2023-06-07T18:14:04.077Z,33.38
2023-06-07T18:19:07.280Z,34.87
2023-06-07T18:24:12.552Z,35.37
2023-06-07T18:29:17.802Z,35.58
2023-06-07T18:34:20.829Z,36.17
2023-06-07T18:39:24.117Z,36.38
2023-06-07T18:44:27.066Z,36.42
2023-06-07T18:49:30.041Z,36.20
2023-06-07T18:54:33.140Z,36.48
2023-06-07T18:59:36.069Z,36.48
2023-06-07T19:04:48.501Z,36.89
2023-06-07T19:09:56.342Z,37.09
2023-06-07T19:14:59.359Z,37.37
2023-06-07T19:20:02.292Z,37.40
2023-06-07T19:25:06.400Z,37.19
2023-06-07T19:30:10.404Z,38.18
2023-06-07T19:35:13.885Z,37.80
2023-06-07T19:40:18.582Z,37.88
2023-06-07T19:45:22.638Z,38.26
2023-06-07T19:50:25.790Z,38.03
2023-06-07T19:55:28.708Z,38.44
2023-06-07T20:00:31.957Z,39.00
2023-06-07T20:05:35.527Z,38.75
2023-06-07T20:10:38.438Z,39.63
2023-06-07T20:15:41.332Z,39.52
2023-06-07T20:20:44.151Z,39.52
2023-06-07T20:25:47.174Z,39.49
2023-06-07T20:30:50.062Z,39.70
2023-06-07T20:35:53.537Z,40.12
2023-06-07T20:40:56.342Z,40.17
2023-06-07T20:45:59.483Z,40.21
2023-06-07T20:51:02.518Z,40.38
2023-06-07T20:56:05.528Z,40.82
2023-06-07T21:01:09.259Z,40.83
2023-06-07T21:06:13.514Z,41.61
2023-06-07T21:11:16.912Z,41.48
2023-06-07T21:16:19.920Z,43.15
2023-06-07T21:21:23.561Z,42.73
2023-06-07T21:26:27.473Z,43.02
2023-06-07T21:31:30.527Z,43.08
2023-06-07T21:36:33.565Z,42.08
2023-06-07T21:41:36.587Z,42.20
2023-06-07T21:46:39.512Z,43.17
2023-06-07T21:51:42.447Z,44.72
2023-06-07T21:56:45.630Z,43.86
2023-06-07T22:01:48.537Z,44.42
2023-06-07T22:06:51.406Z,44.41
2023-06-07T22:11:55.671Z,44.70
2023-06-07T22:17:01.775Z,46.35
2023-06-07T22:22:04.899Z,46.61
2023-06-07T22:27:10.339Z,46.26
2023-06-07T22:32:15.525Z,46.55
2023-06-07T22:37:22.085Z,46.75
2023-06-07T22:42:24.959Z,46.88
2023-06-07T22:47:31.386Z,47.00
2023-06-07T22:52:36.183Z,47.14
2023-06-07T22:57:39.227Z,47.50
2023-06-07T23:02:42.227Z,47.97
2023-06-07T23:07:45.253Z,47.22
2023-06-07T23:12:48.131Z,47.22
2023-06-07T23:17:54.193Z,47.99
2023-06-07T23:22:57.223Z,47.76
2023-06-07T23:28:00.154Z,47.41
2023-06-07T23:33:04.189Z,48.00
2023-06-07T23:38:07.205Z,46.98
2023-06-07T23:43:10.098Z,47.68
2023-06-07T23:48:13.334Z,47.61
2023-06-07T23:53:16.253Z,47.56
2023-06-07T23:58:19.420Z,47.23
